createdAt,value
2017-06-24T00:00:05.337Z,23.02
2017-06-24T00:00:31.438Z,22.94
2017-06-24T00:00:57.529Z,22.93
2017-06-24T00:01:23.632Z,22.84
2017-06-24T00:01:49.740Z,22.84
2017-06-24T00:02:15.830Z,22.87
2017-06-24T00:02:41.929Z,22.76
2017-06-24T00:03:08.034Z,22.83
2017-06-24T00:03:34.126Z,22.83
2017-06-24T00:04:00.223Z,22.72
2017-06-24T00:04:26.331Z,22.84
2017-06-24T00:04:52.425Z,22.81
2017-06-24T00:05:18.540Z,22.8
2017-06-24T00:05:44.671Z,22.68
2017-06-24T00:06:10.797Z,22.69
2017-06-24T00:06:36.901Z,22.66
2017-06-24T00:07:03.042Z,22.7
2017-06-24T00:07:29.141Z,22.7
2017-06-24T00:07:55.247Z,22.7
2017-06-24T00:08:21.371Z,22.66
2017-06-24T00:08:47.484Z,22.66
2017-06-24T00:09:13.597Z,22.68
2017-06-24T00:09:39.694Z,22.72
2017-06-24T00:10:05.810Z,22.66
2017-06-24T00:10:31.917Z,22.63
2017-06-24T00:10:58.044Z,22.57
2017-06-24T00:11:24.135Z,22.57
2017-06-24T00:11:50.266Z,22.55
2017-06-24T00:12:16.357Z,22.59
2017-06-24T00:12:42.466Z,22.59
2017-06-24T00:13:08.565Z,22.63
2017-06-24T00:13:34.657Z,22.65
2017-06-24T00:14:00.763Z,22.7
2017-06-24T00:14:26.920Z,22.66
2017-06-24T00:14:53.012Z,22.59
2017-06-24T00:15:19.141Z,22.73
2017-06-24T00:15:45.248Z,22.65
2017-06-24T00:16:11.336Z,22.68
2017-06-24T00:16:37.460Z,22.73
2017-06-24T00:17:03.568Z,22.72
2017-06-24T00:17:29.709Z,22.72
2017-06-24T00:17:55.817Z,22.66
2017-06-24T00:18:21.906Z,22.68
2017-06-24T00:18:48.011Z,22.65
2017-06-24T00:19:14.146Z,22.6
2017-06-24T00:19:40.234Z,22.63
2017-06-24T00:20:06.385Z,22.6
2017-06-24T00:20:32.492Z,22.55
2017-06-24T00:20:58.605Z,22.55
2017-06-24T00:21:24.700Z,22.55
2017-06-24T00:21:50.832Z,22.55
2017-06-24T00:22:16.929Z,22.6
2017-06-24T00:22:43.019Z,22.55
2017-06-24T00:23:09.152Z,22.6
2017-06-24T00:23:35.287Z,22.51
2017-06-24T00:24:01.442Z,22.59
2017-06-24T00:24:27.535Z,22.55
2017-06-24T00:24:53.633Z,22.57
2017-06-24T00:25:19.740Z,22.54
2017-06-24T00:25:45.833Z,22.51
2017-06-24T00:26:11.923Z,22.59
2017-06-24T00:26:38.035Z,22.6
2017-06-24T00:27:04.156Z,22.62
2017-06-24T00:27:30.248Z,22.69
2017-06-24T00:27:56.356Z,22.7
2017-06-24T00:28:22.457Z,22.68
2017-06-24T00:28:48.581Z,22.65
2017-06-24T00:29:14.679Z,22.55
2017-06-24T00:29:40.770Z,22.48
2017-06-24T00:30:06.883Z,22.51
2017-06-24T00:30:33.009Z,22.54
2017-06-24T00:30:59.100Z,22.57
2017-06-24T00:31:25.206Z,22.53
2017-06-24T00:31:51.333Z,22.6
2017-06-24T00:32:17.450Z,22.54
2017-06-24T00:32:43.582Z,22.63
2017-06-24T00:33:09.688Z,22.57
2017-06-24T00:33:35.798Z,22.51
2017-06-24T00:34:01.898Z,22.43
2017-06-24T00:34:28.016Z,22.44
2017-06-24T00:34:54.125Z,22.25
2017-06-24T00:35:20.225Z,22.26
2017-06-24T00:35:46.316Z,22.29
2017-06-24T00:36:12.446Z,22.32
2017-06-24T00:36:38.553Z,22.3
2017-06-24T00:37:04.640Z,22.28
2017-06-24T00:37:30.741Z,22.29
2017-06-24T00:37:56.875Z,22.25
2017-06-24T00:38:22.965Z,22.18
2017-06-24T00:38:49.062Z,22.2
2017-06-24T00:39:15.170Z,22.28
2017-06-24T00:39:41.266Z,22.35
2017-06-24T00:40:07.371Z,22.38
2017-06-24T00:40:33.458Z,22.39
2017-06-24T00:40:59.584Z,22.44
2017-06-24T00:41:25.691Z,22.45
2017-06-24T00:41:51.782Z,22.39
2017-06-24T00:42:17.902Z,22.45
2017-06-24T00:42:44.008Z,22.39
2017-06-24T00:43:10.102Z,22.41
2017-06-24T00:43:36.190Z,22.33
2017-06-24T00:44:02.303Z,22.29
2017-06-24T00:44:28.400Z,22.23
2017-06-24T00:44:54.516Z,22.29
2017-06-24T00:45:20.650Z,22.15
2017-06-24T00:45:46.749Z,22.14
2017-06-24T00:46:12.886Z,22.2
2017-06-24T00:46:38.990Z,22.11
2017-06-24T00:47:05.098Z,22.15
2017-06-24T00:47:31.188Z,22.1
2017-06-24T00:47:57.287Z,22.11
2017-06-24T00:48:23.393Z,22.04
2017-06-24T00:48:49.485Z,22.13
2017-06-24T00:49:15.581Z,22.17
2017-06-24T00:49:41.686Z,22.14
2017-06-24T00:50:07.811Z,22.18
2017-06-24T00:50:33.973Z,22.15
2017-06-24T00:51:00.075Z,22.2
2017-06-24T00:51:26.176Z,22.15
2017-06-24T00:51:52.285Z,22.15
2017-06-24T00:52:18.403Z,22.17
2017-06-24T00:52:44.503Z,22.26
2017-06-24T00:53:10.607Z,22.26
2017-06-24T00:53:36.728Z,22.17
2017-06-24T00:54:02.820Z,22.22
2017-06-24T00:54:28.931Z,22.2
2017-06-24T00:54:55.054Z,22.18
2017-06-24T00:55:21.169Z,22.15
2017-06-24T00:55:47.331Z,22.17
2017-06-24T00:56:13.427Z,22.22
2017-06-24T00:56:39.530Z,22.3
2017-06-24T00:57:05.650Z,22.15
2017-06-24T00:57:31.742Z,22.13
2017-06-24T00:57:57.854Z,22.2
2017-06-24T00:58:23.978Z,22.11
2017-06-24T00:58:50.068Z,22.14
2017-06-24T00:59:16.174Z,22.07
2017-06-24T00:59:42.274Z,22.07
2017-06-24T01:00:08.392Z,22.02
2017-06-24T01:00:34.493Z,21.95
2017-06-24T01:01:00.600Z,21.99
2017-06-24T01:01:26.688Z,21.98
2017-06-24T01:01:52.789Z,21.95
2017-06-24T01:02:18.884Z,22.06
2017-06-24T01:02:44.989Z,21.99
2017-06-24T01:03:11.089Z,21.95
2017-06-24T01:03:37.181Z,21.95
2017-06-24T01:04:03.283Z,21.91
2017-06-24T01:04:29.389Z,21.95
2017-06-24T01:04:55.498Z,21.96
2017-06-24T01:05:21.598Z,21.89
2017-06-24T01:05:47.706Z,21.93
2017-06-24T01:06:13.823Z,21.98
2017-06-24T01:06:39.921Z,21.91
2017-06-24T01:07:06.057Z,21.93
2017-06-24T01:07:32.153Z,22.04
2017-06-24T01:07:58.244Z,21.95
2017-06-24T01:08:24.354Z,21.93
2017-06-24T01:08:50.476Z,21.92
2017-06-24T01:09:16.588Z,21.85
2017-06-24T01:09:42.698Z,21.99
2017-06-24T01:10:08.852Z,21.93
2017-06-24T01:10:34.943Z,21.96
2017-06-24T01:11:01.048Z,22.08
2017-06-24T01:11:27.155Z,21.93
2017-06-24T01:11:53.244Z,22
2017-06-24T01:12:19.342Z,21.96
2017-06-24T01:12:45.452Z,21.98
2017-06-24T01:13:11.569Z,21.98
2017-06-24T01:13:37.692Z,21.89
2017-06-24T01:14:03.783Z,21.82
2017-06-24T01:14:29.886Z,21.89
2017-06-24T01:14:56.019Z,21.82
2017-06-24T01:15:22.107Z,21.88
2017-06-24T01:15:48.233Z,21.93
2017-06-24T01:16:14.340Z,21.8
2017-06-24T01:16:40.432Z,21.91
2017-06-24T01:17:06.577Z,21.75
2017-06-24T01:17:32.683Z,21.88
2017-06-24T01:17:58.777Z,21.91
2017-06-24T01:18:24.893Z,21.8
2017-06-24T01:18:50.996Z,21.83
2017-06-24T01:19:17.097Z,21.79
2017-06-24T01:19:43.203Z,21.7
2017-06-24T01:20:09.295Z,21.72
2017-06-24T01:20:35.393Z,21.67
2017-06-24T01:21:01.501Z,21.66
2017-06-24T01:21:27.621Z,21.77
2017-06-24T01:21:53.761Z,21.61
2017-06-24T01:22:19.899Z,21.69
2017-06-24T01:22:46.025Z,21.62
2017-06-24T01:23:12.140Z,21.58
2017-06-24T01:23:38.246Z,21.58
2017-06-24T01:24:04.347Z,21.57
2017-06-24T01:24:30.446Z,21.6
2017-06-24T01:24:56.539Z,21.57
2017-06-24T01:25:22.654Z,21.61
2017-06-24T01:25:48.765Z,21.58
2017-06-24T01:26:14.862Z,21.6
2017-06-24T01:26:40.952Z,21.61
2017-06-24T01:27:07.084Z,21.55
2017-06-24T01:27:33.212Z,21.66
2017-06-24T01:27:59.302Z,21.58
2017-06-24T01:28:25.432Z,21.6
2017-06-24T01:28:51.538Z,21.57
2017-06-24T01:29:17.631Z,21.61
2017-06-24T01:29:43.752Z,21.55
2017-06-24T01:30:09.857Z,21.54
2017-06-24T01:30:35.949Z,21.57
2017-06-24T01:31:02.047Z,21.5
2017-06-24T01:31:28.154Z,21.52
2017-06-24T01:31:54.247Z,21.39
2017-06-24T01:32:20.337Z,21.4
2017-06-24T01:32:46.447Z,21.46
2017-06-24T01:33:12.544Z,21.48
2017-06-24T01:33:38.661Z,21.39
2017-06-24T01:34:04.795Z,21.45
2017-06-24T01:34:30.922Z,21.45
2017-06-24T01:34:57.039Z,21.35
2017-06-24T01:35:23.143Z,21.36
2017-06-24T01:35:49.236Z,21.33
2017-06-24T01:36:15.346Z,21.36
2017-06-24T01:36:41.443Z,21.32
2017-06-24T01:37:07.535Z,21.18
2017-06-24T01:37:33.643Z,21.24
2017-06-24T01:37:59.771Z,21.27
2017-06-24T01:38:25.863Z,21.29
2017-06-24T01:38:51.968Z,21.32
2017-06-24T01:39:18.072Z,21.3
2017-06-24T01:39:44.160Z,21.33
2017-06-24T01:40:10.262Z,21.24
2017-06-24T01:40:36.369Z,21.37
2017-06-24T01:41:02.488Z,21.25
2017-06-24T01:41:28.592Z,21.3
2017-06-24T01:41:54.685Z,21.22
2017-06-24T01:42:20.787Z,21.18
2017-06-24T01:42:46.924Z,21.25
2017-06-24T01:43:13.012Z,21.25
2017-06-24T01:43:39.137Z,21.2
2017-06-24T01:44:05.246Z,21.32
2017-06-24T01:44:31.334Z,21.4
2017-06-24T01:44:57.432Z,21.35
2017-06-24T01:45:23.538Z,21.42
2017-06-24T01:45:49.629Z,21.37
2017-06-24T01:46:15.747Z,21.39
2017-06-24T01:46:41.850Z,21.37
2017-06-24T01:47:07.977Z,21.24
2017-06-24T01:47:34.109Z,21.2
2017-06-24T01:48:00.226Z,21.21
2017-06-24T01:48:26.322Z,21.22
2017-06-24T01:48:52.429Z,21.22
2017-06-24T01:49:18.520Z,21.22
2017-06-24T01:49:44.611Z,21.11
2017-06-24T01:50:10.720Z,21.07
2017-06-24T01:50:36.817Z,21.09
2017-06-24T01:51:02.908Z,21.11
2017-06-24T01:51:29.067Z,21.06
2017-06-24T01:51:55.196Z,21.14
2017-06-24T01:52:21.296Z,21.21
2017-06-24T01:52:47.389Z,21.11
2017-06-24T01:53:13.482Z,21.11
2017-06-24T01:53:39.642Z,21.12
2017-06-24T01:54:05.794Z,21.2
2017-06-24T01:54:31.885Z,21.18
2017-06-24T01:54:58.018Z,21.18
2017-06-24T01:55:24.145Z,21.27
2017-06-24T01:55:50.237Z,21.25
2017-06-24T01:56:16.340Z,21.21
2017-06-24T01:56:42.471Z,21.2
2017-06-24T01:57:08.558Z,21.21
2017-06-24T01:57:34.683Z,21.2
2017-06-24T01:58:00.803Z,21.24
2017-06-24T01:58:26.910Z,21.09
2017-06-24T01:58:53.009Z,21.05
2017-06-24T01:59:19.098Z,21.06
2017-06-24T01:59:45.231Z,21.11
2017-06-24T02:00:11.338Z,21.09
2017-06-24T02:00:37.450Z,21.2
2017-06-24T02:01:03.576Z,21.09
2017-06-24T02:01:29.680Z,21.12
2017-06-24T02:01:55.769Z,21.11
2017-06-24T02:02:21.866Z,21.02
2017-06-24T02:02:47.974Z,20.97
2017-06-24T02:03:14.092Z,21.05
2017-06-24T02:03:40.198Z,21.11
2017-06-24T02:04:06.289Z,21.06
2017-06-24T02:04:32.412Z,21.11
2017-06-24T02:04:58.517Z,21.14
2017-06-24T02:05:24.608Z,21.12
2017-06-24T02:05:50.705Z,21.07
2017-06-24T02:06:16.876Z,21.12
2017-06-24T02:06:43.120Z,21.12
2017-06-24T02:07:09.201Z,21.09
2017-06-24T02:07:35.339Z,21.12
2017-06-24T02:08:01.437Z,21.12
2017-06-24T02:08:27.529Z,21
2017-06-24T02:08:53.661Z,21.03
2017-06-24T02:09:19.781Z,21.07
2017-06-24T02:09:45.947Z,21.12
2017-06-24T02:10:12.065Z,21.07
2017-06-24T02:10:38.184Z,21.07
2017-06-24T02:11:04.293Z,21.2
2017-06-24T02:11:30.568Z,21.18
2017-06-24T02:11:56.683Z,21.29
2017-06-24T02:12:22.815Z,21.2
2017-06-24T02:12:48.943Z,21.07
2017-06-24T02:13:15.034Z,21.06
2017-06-24T02:13:47.434Z,21.07
2017-06-24T02:14:13.538Z,21.12
2017-06-24T02:14:39.624Z,21.09
2017-06-24T02:15:05.724Z,21.15
2017-06-24T02:15:31.858Z,21.15
2017-06-24T02:15:57.951Z,21.22
2017-06-24T02:16:24.049Z,21.22
2017-06-24T02:16:50.157Z,21.22
2017-06-24T02:17:16.278Z,21.18
2017-06-24T02:17:42.371Z,21.29
2017-06-24T02:18:08.478Z,21.32
2017-06-24T02:18:34.576Z,21.22
2017-06-24T02:19:00.717Z,21.29
2017-06-24T02:19:26.822Z,21.22
2017-06-24T02:19:52.950Z,21.18
2017-06-24T02:20:19.052Z,21.24
2017-06-24T02:20:45.147Z,21.2
2017-06-24T02:21:11.241Z,21.2
2017-06-24T02:21:37.350Z,21.22
2017-06-24T02:22:03.499Z,21.24
2017-06-24T02:22:29.639Z,21.3
2017-06-24T02:22:55.747Z,21.32
2017-06-24T02:23:21.902Z,21.33
2017-06-24T02:23:48.016Z,21.33
2017-06-24T02:24:14.118Z,21.33
2017-06-24T02:24:40.253Z,21.21
2017-06-24T02:25:06.345Z,21.25
2017-06-24T02:25:32.447Z,21.27
2017-06-24T02:25:58.543Z,21.18
2017-06-24T02:26:24.649Z,21.14
2017-06-24T02:26:50.750Z,21.05
2017-06-24T02:27:16.843Z,21.09
2017-06-24T02:27:42.947Z,21.07
2017-06-24T02:28:09.080Z,21.18
2017-06-24T02:28:35.170Z,21.06
2017-06-24T02:29:01.268Z,21.09
2017-06-24T02:29:27.376Z,21.09
2017-06-24T02:29:53.466Z,21.07
2017-06-24T02:30:19.589Z,21
2017-06-24T02:30:45.696Z,21.03
2017-06-24T02:31:11.790Z,21.07
2017-06-24T02:31:37.897Z,20.92
2017-06-24T02:32:04.013Z,20.95
2017-06-24T02:32:30.138Z,20.97
2017-06-24T02:32:56.272Z,21.03
2017-06-24T02:33:22.362Z,21
2017-06-24T02:33:48.457Z,20.87
2017-06-24T02:34:14.616Z,20.85
2017-06-24T02:34:40.737Z,20.9
2017-06-24T02:35:06.879Z,20.8
2017-06-24T02:35:32.986Z,20.62
2017-06-24T02:35:59.139Z,20.67
2017-06-24T02:36:25.254Z,20.66
2017-06-24T02:36:51.413Z,20.7
2017-06-24T02:37:17.507Z,20.62
2017-06-24T02:37:43.641Z,20.66
2017-06-24T02:38:09.737Z,20.58
2017-06-24T02:38:35.830Z,20.62
2017-06-24T02:39:01.964Z,20.56
2017-06-24T02:39:28.058Z,20.59
2017-06-24T02:39:54.174Z,20.59
2017-06-24T02:40:20.279Z,20.6
2017-06-24T02:40:46.409Z,20.41
2017-06-24T02:41:12.499Z,20.43
2017-06-24T02:41:38.630Z,20.34
2017-06-24T02:42:04.734Z,20.47
2017-06-24T02:42:30.852Z,20.43
2017-06-24T02:42:56.976Z,20.4
2017-06-24T02:43:23.090Z,20.5
2017-06-24T02:43:49.219Z,20.48
2017-06-24T02:44:15.318Z,20.41
2017-06-24T02:44:41.409Z,20.41
2017-06-24T02:45:07.564Z,20.4
2017-06-24T02:45:33.699Z,20.4
2017-06-24T02:45:59.783Z,20.47
2017-06-24T02:46:25.882Z,20.36
2017-06-24T02:46:51.989Z,20.4
2017-06-24T02:47:18.080Z,20.37
2017-06-24T02:47:44.177Z,20.37
2017-06-24T02:48:10.297Z,20.4
2017-06-24T02:48:36.402Z,20.39
2017-06-24T02:49:02.508Z,20.34
2017-06-24T02:49:28.621Z,20.41
2017-06-24T02:49:54.720Z,20.34
2017-06-24T02:50:20.828Z,20.34
2017-06-24T02:50:46.919Z,20.32
2017-06-24T02:51:13.017Z,20.31
2017-06-24T02:51:39.121Z,20.37
2017-06-24T02:52:05.213Z,20.37
2017-06-24T02:52:31.326Z,20.29
2017-06-24T02:52:57.436Z,20.31
2017-06-24T02:53:23.588Z,20.26
2017-06-24T02:53:49.690Z,20.24
2017-06-24T02:54:15.780Z,20.18
2017-06-24T02:54:41.879Z,20.07
2017-06-24T02:55:08.013Z,20.07
2017-06-24T02:55:34.135Z,20.18
2017-06-24T02:56:00.226Z,20.13
2017-06-24T02:56:26.364Z,20.21
2017-06-24T02:56:52.461Z,20.11
2017-06-24T02:57:18.551Z,20.19
2017-06-24T02:57:44.658Z,20.09
2017-06-24T02:58:10.759Z,20.16
2017-06-24T02:58:36.874Z,20.22
2017-06-24T02:59:02.977Z,20.11
2017-06-24T02:59:29.081Z,20.21
2017-06-24T02:59:55.166Z,20.14
2017-06-24T03:00:21.265Z,20.11
2017-06-24T03:00:47.372Z,20.24
2017-06-24T03:01:13.511Z,20.07
2017-06-24T03:01:39.631Z,20.11
2017-06-24T03:02:05.739Z,20.14
2017-06-24T03:02:31.830Z,20.1
2017-06-24T03:02:57.920Z,20.03
2017-06-24T03:03:24.059Z,20.04
2017-06-24T03:03:50.157Z,20
2017-06-24T03:04:16.248Z,19.7
2017-06-24T03:04:42.352Z,19.84
2017-06-24T03:05:08.447Z,19.82
2017-06-24T03:05:34.553Z,19.92
2017-06-24T03:06:00.671Z,20.03
2017-06-24T03:06:26.760Z,19.91
2017-06-24T03:06:52.871Z,19.89
2017-06-24T03:07:18.968Z,19.82
2017-06-24T03:07:45.056Z,19.88
2017-06-24T03:08:11.162Z,19.95
2017-06-24T03:08:37.263Z,19.94
2017-06-24T03:09:03.379Z,19.95
2017-06-24T03:09:29.507Z,19.92
2017-06-24T03:09:55.613Z,19.99
2017-06-24T03:10:21.707Z,19.94
2017-06-24T03:10:47.831Z,19.95
2017-06-24T03:11:13.922Z,20.06
2017-06-24T03:11:40.029Z,19.94
2017-06-24T03:12:06.130Z,20
2017-06-24T03:12:32.222Z,19.94
2017-06-24T03:12:58.324Z,19.92
2017-06-24T03:13:24.455Z,19.96
2017-06-24T03:13:50.542Z,19.92
2017-06-24T03:14:16.644Z,20.02
2017-06-24T03:14:42.752Z,20.06
2017-06-24T03:15:08.844Z,20.09
2017-06-24T03:15:34.941Z,20.09
2017-06-24T03:16:01.039Z,20.06
2017-06-24T03:16:27.141Z,20.06
2017-06-24T03:16:53.248Z,20.06
2017-06-24T03:17:19.382Z,20.1
2017-06-24T03:17:45.481Z,20.11
2017-06-24T03:18:11.615Z,20.11
2017-06-24T03:18:37.708Z,20.11
2017-06-24T03:19:03.807Z,20.06
2017-06-24T03:19:29.940Z,20.13
2017-06-24T03:19:56.033Z,20.16
2017-06-24T03:20:22.121Z,19.96
2017-06-24T03:20:48.258Z,20.04
2017-06-24T03:21:14.355Z,19.99
2017-06-24T03:21:40.485Z,20.03
2017-06-24T03:22:06.575Z,20.02
2017-06-24T03:22:32.673Z,19.92
2017-06-24T03:22:58.781Z,19.96
2017-06-24T03:23:24.900Z,19.81
2017-06-24T03:23:51.016Z,19.82
2017-06-24T03:24:17.125Z,19.85
2017-06-24T03:24:43.224Z,19.66
2017-06-24T03:25:09.314Z,19.64
2017-06-24T03:25:35.420Z,19.76
2017-06-24T03:26:01.519Z,19.69
2017-06-24T03:26:27.610Z,19.84
2017-06-24T03:26:53.712Z,19.79
2017-06-24T03:27:19.829Z,19.82
2017-06-24T03:27:45.969Z,19.86
2017-06-24T03:28:12.090Z,19.77
2017-06-24T03:28:38.204Z,19.84
2017-06-24T03:29:04.311Z,19.82
2017-06-24T03:29:30.466Z,19.86
2017-06-24T03:29:56.555Z,19.91
2017-06-24T03:30:22.659Z,20
2017-06-24T03:30:48.764Z,20.02
2017-06-24T03:31:14.848Z,20.04
2017-06-24T03:31:40.947Z,20.03
2017-06-24T03:32:07.051Z,19.95
2017-06-24T03:32:33.138Z,20
2017-06-24T03:32:59.243Z,19.89
2017-06-24T03:33:25.356Z,19.84
2017-06-24T03:33:51.457Z,19.86
2017-06-24T03:34:17.564Z,19.92
2017-06-24T03:34:43.649Z,19.77
2017-06-24T03:35:09.746Z,19.82
2017-06-24T03:35:35.853Z,19.79
2017-06-24T03:36:01.942Z,19.86
2017-06-24T03:36:28.061Z,19.79
2017-06-24T03:36:54.168Z,19.94
2017-06-24T03:37:20.314Z,19.92
2017-06-24T03:37:46.425Z,19.94
2017-06-24T03:38:12.527Z,20.02
2017-06-24T03:38:38.652Z,19.95
2017-06-24T03:39:04.758Z,19.94
2017-06-24T03:39:30.851Z,20.04
2017-06-24T03:39:56.947Z,19.96
2017-06-24T03:40:23.106Z,19.92
2017-06-24T03:40:49.229Z,19.95
2017-06-24T03:41:15.344Z,19.94
2017-06-24T03:41:41.506Z,19.94
2017-06-24T03:42:07.605Z,19.77
2017-06-24T03:42:33.695Z,19.76
2017-06-24T03:42:59.802Z,19.7
2017-06-24T03:43:25.902Z,19.84
2017-06-24T03:43:52.017Z,19.81
2017-06-24T03:44:18.123Z,19.85
2017-06-24T03:44:44.256Z,19.82
2017-06-24T03:45:10.344Z,19.81
2017-06-24T03:45:36.444Z,19.82
2017-06-24T03:46:02.550Z,19.82
2017-06-24T03:46:28.641Z,19.92
2017-06-24T03:46:54.737Z,19.79
2017-06-24T03:47:20.870Z,19.85
2017-06-24T03:47:46.965Z,19.79
2017-06-24T03:48:13.055Z,19.84
2017-06-24T03:48:39.191Z,19.74
2017-06-24T03:49:05.290Z,19.7
2017-06-24T03:49:31.392Z,19.63
2017-06-24T03:49:57.482Z,19.69
2017-06-24T03:50:23.576Z,19.64
2017-06-24T03:50:49.682Z,19.62
2017-06-24T03:51:15.828Z,19.66
2017-06-24T03:51:41.920Z,19.64
2017-06-24T03:52:08.031Z,19.7
2017-06-24T03:52:34.127Z,19.64
2017-06-24T03:53:00.217Z,19.64
2017-06-24T03:53:26.348Z,19.64
2017-06-24T03:53:52.503Z,19.69
2017-06-24T03:54:18.592Z,19.66
2017-06-24T03:54:44.695Z,19.59
2017-06-24T03:55:10.811Z,19.59
2017-06-24T03:55:36.977Z,19.47
2017-06-24T03:56:03.077Z,19.52
2017-06-24T03:56:29.188Z,19.45
2017-06-24T03:56:55.296Z,19.41
2017-06-24T03:57:21.422Z,19.48
2017-06-24T03:57:47.513Z,19.54
2017-06-24T03:58:13.617Z,19.51
2017-06-24T03:58:39.722Z,19.58
2017-06-24T03:59:05.809Z,19.55
2017-06-24T03:59:31.909Z,19.45
2017-06-24T03:59:58.042Z,19.39
2017-06-24T04:00:24.132Z,19.39
2017-06-24T04:00:50.236Z,19.39
2017-06-24T04:01:16.327Z,19.33
2017-06-24T04:01:42.430Z,19.31
2017-06-24T04:02:08.538Z,19.31
2017-06-24T04:02:34.624Z,19.29
2017-06-24T04:03:00.726Z,19.24
2017-06-24T04:03:26.860Z,19.24
2017-06-24T04:03:52.951Z,19.34
2017-06-24T04:04:19.099Z,19.3
2017-06-24T04:04:45.205Z,19.26
2017-06-24T04:05:11.303Z,19.3
2017-06-24T04:05:37.395Z,19.33
2017-06-24T04:06:03.525Z,19.24
2017-06-24T04:06:29.647Z,19.24
2017-06-24T04:06:55.755Z,19.27
2017-06-24T04:07:21.845Z,19.26
2017-06-24T04:07:47.968Z,19.29
2017-06-24T04:08:14.080Z,19.26
2017-06-24T04:08:40.168Z,19.29
2017-06-24T04:09:06.259Z,19.26
2017-06-24T04:09:32.397Z,19.24
2017-06-24T04:09:58.571Z,19.21
2017-06-24T04:10:24.661Z,19.22
2017-06-24T04:10:51.118Z,19.14
2017-06-24T04:11:17.218Z,19.22
2017-06-24T04:11:43.318Z,19.16
2017-06-24T04:12:09.414Z,19.12
2017-06-24T04:12:35.505Z,19.15
2017-06-24T04:13:01.614Z,19.14
2017-06-24T04:13:27.710Z,19.16
2017-06-24T04:13:53.805Z,19.12
2017-06-24T04:14:19.909Z,19.24
2017-06-24T04:14:46.007Z,19.22
2017-06-24T04:15:12.096Z,19.26
2017-06-24T04:15:38.200Z,19.29
2017-06-24T04:16:04.308Z,19.31
2017-06-24T04:16:30.422Z,19.31
2017-06-24T04:16:56.546Z,19.3
2017-06-24T04:17:22.641Z,19.24
2017-06-24T04:17:48.747Z,19.14
2017-06-24T04:18:14.873Z,19.22
2017-06-24T04:18:40.964Z,19.19
2017-06-24T04:19:07.090Z,19.14
2017-06-24T04:19:33.196Z,19.09
2017-06-24T04:19:59.310Z,19.11
2017-06-24T04:20:25.434Z,19.08
2017-06-24T04:20:51.538Z,19.12
2017-06-24T04:21:17.627Z,19.11
2017-06-24T04:21:43.724Z,19.09
2017-06-24T04:22:09.859Z,19.16
2017-06-24T04:22:35.971Z,19.22
2017-06-24T04:23:02.106Z,19.21
2017-06-24T04:23:28.274Z,19.07
2017-06-24T04:23:54.398Z,19.08
2017-06-24T04:24:20.504Z,19.14
2017-06-24T04:24:46.595Z,19.24
2017-06-24T04:25:12.741Z,19.14
2017-06-24T04:25:38.875Z,19.12
2017-06-24T04:26:04.994Z,19.14
2017-06-24T04:26:31.108Z,19.14
2017-06-24T04:26:57.219Z,19.04
2017-06-24T04:27:23.314Z,19.12
2017-06-24T04:27:49.405Z,19.02
2017-06-24T04:28:15.513Z,19.02
2017-06-24T04:28:41.613Z,18.99
2017-06-24T04:29:07.727Z,19.08
2017-06-24T04:29:33.829Z,19.02
2017-06-24T04:29:59.937Z,19.08
2017-06-24T04:30:26.023Z,19.02
2017-06-24T04:30:52.147Z,19.09
2017-06-24T04:31:18.254Z,19.08
2017-06-24T04:31:44.346Z,19.11
2017-06-24T04:32:10.444Z,19.08
2017-06-24T04:32:36.551Z,19.14
2017-06-24T04:33:02.645Z,19.16
2017-06-24T04:33:28.735Z,19.11
2017-06-24T04:33:54.866Z,19.08
2017-06-24T04:34:20.966Z,19.09
2017-06-24T04:34:47.073Z,19.08
2017-06-24T04:35:13.162Z,19
2017-06-24T04:35:39.259Z,19.04
2017-06-24T04:36:05.468Z,19.02
2017-06-24T04:36:31.555Z,19.07
2017-06-24T04:36:57.694Z,19
2017-06-24T04:37:23.802Z,19.02
2017-06-24T04:37:49.901Z,19.09
2017-06-24T04:38:15.992Z,19.02
2017-06-24T04:38:42.119Z,19.07
2017-06-24T04:39:08.225Z,19.12
2017-06-24T04:39:34.347Z,19.08
2017-06-24T04:40:00.469Z,19.07
2017-06-24T04:40:26.561Z,19.22
2017-06-24T04:40:52.725Z,19.09
2017-06-24T04:41:18.840Z,19.18
2017-06-24T04:41:44.954Z,19.15
2017-06-24T04:42:11.060Z,19.16
2017-06-24T04:42:37.160Z,19.09
2017-06-24T04:43:03.301Z,19.15
2017-06-24T04:43:29.405Z,19.09
2017-06-24T04:43:55.566Z,19.18
2017-06-24T04:44:21.653Z,19.11
2017-06-24T04:44:47.754Z,19.15
2017-06-24T04:45:13.846Z,19.11
2017-06-24T04:45:39.953Z,19.08
2017-06-24T04:46:06.052Z,19.22
2017-06-24T04:46:32.217Z,19.3
2017-06-24T04:46:58.319Z,19.26
2017-06-24T04:47:24.428Z,19.26
2017-06-24T04:47:50.538Z,19.26
2017-06-24T04:48:16.636Z,19.37
2017-06-24T04:48:42.744Z,19.27
2017-06-24T04:49:08.858Z,19.29
2017-06-24T04:49:34.979Z,19.3
2017-06-24T04:50:01.085Z,19.12
2017-06-24T04:50:27.206Z,19.08
2017-06-24T04:50:53.337Z,19.02
2017-06-24T04:51:19.423Z,19.02
2017-06-24T04:51:45.548Z,19.07
2017-06-24T04:52:11.653Z,19.04
2017-06-24T04:52:37.768Z,19.08
2017-06-24T04:53:03.865Z,18.99
2017-06-24T04:53:29.971Z,19.09
2017-06-24T04:53:56.065Z,19.11
2017-06-24T04:54:22.155Z,19.11
2017-06-24T04:54:48.292Z,19.02
2017-06-24T04:55:14.416Z,19.09
2017-06-24T04:55:40.556Z,19.07
2017-06-24T04:56:06.661Z,19.14
2017-06-24T04:56:32.755Z,19.12
2017-06-24T04:56:58.862Z,19.24
2017-06-24T04:57:24.958Z,19.27
2017-06-24T04:57:51.049Z,19.39
2017-06-24T04:58:17.186Z,19.34
2017-06-24T04:58:43.310Z,19.3
2017-06-24T04:59:09.400Z,19.27
2017-06-24T04:59:35.505Z,19.27
2017-06-24T05:00:01.605Z,19.3
2017-06-24T05:00:27.698Z,19.27
2017-06-24T05:00:53.803Z,19.33
2017-06-24T05:01:19.908Z,19.31
2017-06-24T05:01:46.028Z,19.39
2017-06-24T05:02:12.126Z,19.37
2017-06-24T05:02:38.241Z,19.45
2017-06-24T05:03:04.348Z,19.51
2017-06-24T05:03:30.475Z,19.48
2017-06-24T05:03:56.566Z,19.51
2017-06-24T05:04:22.697Z,19.51
2017-06-24T05:04:48.800Z,19.51
2017-06-24T05:05:14.938Z,19.45
2017-06-24T05:05:41.061Z,19.45
2017-06-24T05:06:07.166Z,19.36
2017-06-24T05:06:33.256Z,19.31
2017-06-24T05:06:59.377Z,19.34
2017-06-24T05:07:25.472Z,19.26
2017-06-24T05:07:51.577Z,19.29
2017-06-24T05:08:17.680Z,19.26
2017-06-24T05:08:43.766Z,19.26
2017-06-24T05:09:09.867Z,19.3
2017-06-24T05:09:36.002Z,19.3
2017-06-24T05:10:02.092Z,19.4
2017-06-24T05:10:28.215Z,19.39
2017-06-24T05:10:54.350Z,19.47
2017-06-24T05:11:20.444Z,19.56
2017-06-24T05:11:46.834Z,19.54
2017-06-24T05:12:12.942Z,19.47
2017-06-24T05:12:39.038Z,19.51
2017-06-24T05:13:05.128Z,19.52
2017-06-24T05:13:31.267Z,19.48
2017-06-24T05:13:57.389Z,19.55
2017-06-24T05:14:23.502Z,19.48
2017-06-24T05:14:49.606Z,19.49
2017-06-24T05:15:15.710Z,19.49
2017-06-24T05:15:41.797Z,19.49
2017-06-24T05:16:07.924Z,19.49
2017-06-24T05:16:34.060Z,19.58
2017-06-24T05:17:00.151Z,19.56
2017-06-24T05:17:26.245Z,19.59
2017-06-24T05:17:52.351Z,19.64
2017-06-24T05:18:18.471Z,19.63
2017-06-24T05:18:44.578Z,19.58
2017-06-24T05:19:10.666Z,19.64
2017-06-24T05:19:36.791Z,19.56
2017-06-24T05:20:02.950Z,19.63
2017-06-24T05:20:29.041Z,19.54
2017-06-24T05:20:55.163Z,19.55
2017-06-24T05:21:21.268Z,19.59
2017-06-24T05:21:47.389Z,19.51
2017-06-24T05:22:13.504Z,19.45
2017-06-24T05:22:39.613Z,19.4
2017-06-24T05:23:05.712Z,19.31
2017-06-24T05:23:31.850Z,19.33
2017-06-24T05:23:57.958Z,19.31
2017-06-24T05:24:24.051Z,19.37
2017-06-24T05:24:50.158Z,19.27
2017-06-24T05:25:16.251Z,19.36
2017-06-24T05:25:42.342Z,19.3
2017-06-24T05:26:08.476Z,19.29
2017-06-24T05:26:34.602Z,19.26
2017-06-24T05:27:00.719Z,19.26
2017-06-24T05:27:26.827Z,19.24
2017-06-24T05:27:52.929Z,19.22
2017-06-24T05:28:19.019Z,19.18
2017-06-24T05:28:45.122Z,19.18
2017-06-24T05:29:11.229Z,19.24
2017-06-24T05:29:37.373Z,19.21
2017-06-24T05:30:03.468Z,19.18
2017-06-24T05:30:29.559Z,19.22
2017-06-24T05:30:55.666Z,19.29
2017-06-24T05:31:21.850Z,19.26
2017-06-24T05:31:47.939Z,19.26
2017-06-24T05:32:14.068Z,19.34
2017-06-24T05:32:40.176Z,19.26
2017-06-24T05:33:06.286Z,19.29
2017-06-24T05:33:32.388Z,19.14
2017-06-24T05:33:58.522Z,19.27
2017-06-24T05:34:24.640Z,19.26
2017-06-24T05:34:50.760Z,19.16
2017-06-24T05:35:16.857Z,19.22
2017-06-24T05:35:42.962Z,19.26
2017-06-24T05:36:09.066Z,19.31
2017-06-24T05:36:35.153Z,19.36
2017-06-24T05:37:01.251Z,19.4
2017-06-24T05:37:27.382Z,19.31